Time;durP1;ratioP1;P1;durP2;ratioP2;P2;SDS_P1;SDS_P2;PMS_P1;PMS_P2;Temp;Humidity;BMP_temperature;BMP_pressure;BME280_temperature;BME280_humidity;BME280_pressure;Samples;Min_cycle;Max_cycle;Signal;HPM_P1;HPM_P2
2023/05/23 00:01:23;;;;;;;16.77;14.40;;;23.40;72.90;;;;;;5050605;28;20205;-72
2023/05/23 00:03:52;;;;;;;16.50;13.80;;;23.30;73.20;;;;;;5050993;28;20205;-71
2023/05/23 00:06:21;;;;;;;13.87;12.37;;;23.20;73.50;;;;;;5050797;28;20705;-71
2023/05/23 00:08:48;;;;;;;13.37;11.73;;;23.20;73.70;;;;;;5050815;28;20205;-71
2023/05/23 00:11:15;;;;;;;13.20;11.73;;;23.20;73.70;;;;;;5050636;28;20214;-72
2023/05/23 00:13:43;;;;;;;15.87;13.23;;;23.20;73.80;;;;;;5050662;28;20205;-71
2023/05/23 00:16:10;;;;;;;18.67;12.90;;;23.20;73.80;;;;;;5050593;28;20624;-71
2023/05/23 00:18:39;;;;;;;14.60;13.03;;;23.20;73.90;;;;;;5050604;28;20233;-72
2023/05/23 00:21:05;;;;;;;13.20;11.80;;;23.20;73.90;;;;;;5065843;28;20201;-71
2023/05/23 00:23:32;;;;;;;13.53;12.13;;;23.20;74.00;;;;;;5070660;28;20203;-71
2023/05/23 00:25:59;;;;;;;15.87;13.00;;;23.30;74.20;;;;;;5068722;28;20224;-71
2023/05/23 00:28:26;;;;;;;15.23;13.10;;;23.30;74.20;;;;;;5070567;28;20526;-71
2023/05/23 00:30:55;;;;;;;16.10;12.67;;;23.30;74.20;;;;;;5067365;28;20292;-72
2023/05/23 00:33:22;;;;;;;15.57;13.33;;;23.30;74.30;;;;;;5050635;28;20201;-70
2023/05/23 00:35:49;;;;;;;17.90;14.40;;;23.30;74.30;;;;;;5066083;28;20220;-72
2023/05/23 00:38:16;;;;;;;16.47;13.80;;;23.20;74.20;;;;;;5070510;28;20832;-72
2023/05/23 00:40:43;;;;;;;16.03;14.27;;;23.30;74.40;;;;;;5069892;28;20209;-72
2023/05/23 00:43:11;;;;;;;17.57;14.50;;;23.30;74.30;;;;;;5066494;28;20554;-72
2023/05/23 00:45:38;;;;;;;15.10;13.37;;;23.30;74.40;;;;;;5050364;28;20210;-72
2023/05/23 00:48:07;;;;;;;15.00;13.40;;;23.30;74.50;;;;;;5050494;28;20566;-71
2023/05/23 00:50:35;;;;;;;15.23;13.63;;;23.30;74.70;;;;;;5050239;28;20230;-71
2023/05/23 00:53:02;;;;;;;16.43;14.67;;;23.30;74.70;;;;;;5050122;28;20237;-71
2023/05/23 00:55:30;;;;;;;17.00;15.17;;;23.30;74.90;;;;;;5050672;28;20221;-72
2023/05/23 00:57:57;;;;;;;16.87;14.90;;;23.30;75.00;;;;;;5054258;28;20565;-72
2023/05/23 01:00:25;;;;;;;18.00;15.20;;;23.30;75.10;;;;;;5036471;28;20643;-72
2023/05/23 01:02:52;;;;;;;16.47;13.90;;;23.30;75.20;;;;;;5053783;28;20217;-71
2023/05/23 01:05:23;;;;;;;16.50;13.90;;;23.30;75.10;;;;;;5053947;28;20228;-71
2023/05/23 01:07:51;;;;;;;17.67;15.77;;;23.30;75.20;;;;;;5053712;28;20202;-70
2023/05/23 01:10:20;;;;;;;17.37;14.47;;;23.30;75.30;;;;;;5053250;28;20236;-73
2023/05/23 01:12:58;;;;;;;15.30;13.70;;;23.40;75.40;;;;;;5053740;28;20206;-71
2023/05/23 01:15:31;;;;;;;15.63;14.03;;;23.40;75.50;;;;;;5053767;28;20221;-72
2023/05/23 01:18:03;;;;;;;15.13;13.53;;;23.40;75.60;;;;;;5053461;28;20577;-72
2023/05/23 01:20:35;;;;;;;15.73;13.90;;;23.40;75.50;;;;;;5064124;28;20258;-73
2023/05/23 01:23:29;;;;;;;16.33;14.23;;;23.40;75.40;;;;;;5073044;28;20231;-70
2023/05/23 01:26:18;;;;;;;14.90;13.30;;;23.40;75.80;;;;;;5073395;28;20689;-71
2023/05/23 01:28:50;;;;;;;14.97;13.40;;;23.40;75.90;;;;;;5073437;28;20714;-71
2023/05/23 01:31:18;;;;;;;16.50;14.20;;;23.40;75.60;;;;;;5073126;28;20216;-72
2023/05/23 01:33:46;;;;;;;15.10;13.47;;;23.40;75.60;;;;;;5072559;28;20201;-71
2023/05/23 01:36:14;;;;;;;18.23;16.17;;;23.40;75.60;;;;;;5073026;28;20232;-72
2023/05/23 01:38:41;;;;;;;14.87;13.37;;;23.30;75.60;;;;;;5075195;28;20205;-72
2023/05/23 01:41:08;;;;;;;15.53;13.73;;;23.30;75.60;;;;;;5073268;28;20278;-70
2023/05/23 01:43:35;;;;;;;14.90;13.30;;;23.30;75.70;;;;;;5072773;28;20233;-72
2023/05/23 01:46:05;;;;;;;15.20;13.70;;;23.30;75.80;;;;;;5073205;28;20584;-72
2023/05/23 01:48:33;;;;;;;16.00;14.50;;;23.30;76.00;;;;;;5073201;28;20197;-72
2023/05/23 01:51:00;;;;;;;15.27;13.77;;;23.30;75.80;;;;;;5072712;28;20227;-71
2023/05/23 01:53:30;;;;;;;15.43;13.50;;;23.20;75.70;;;;;;5072551;28;20665;-71
2023/05/23 01:55:57;;;;;;;15.40;13.93;;;23.20;75.80;;;;;;5072780;28;20685;-71
2023/05/23 01:58:24;;;;;;;16.23;14.63;;;23.20;75.70;;;;;;5072744;28;20201;-73
2023/05/23 02:00:51;;;;;;;14.47;13.17;;;23.20;75.70;;;;;;5072913;28;20573;-72
2023/05/23 02:03:19;;;;;;;17.13;15.33;;;23.10;75.80;;;;;;5071593;28;20209;-72
2023/05/23 02:05:46;;;;;;;17.77;15.07;;;23.20;76.10;;;;;;5071558;28;20299;-72
2023/05/23 02:08:13;;;;;;;15.67;14.07;;;23.10;75.90;;;;;;5070614;28;20225;-71
2023/05/23 02:10:40;;;;;;;17.77;15.50;;;23.10;76.10;;;;;;5072042;28;20231;-70
2023/05/23 02:13:07;;;;;;;16.73;15.03;;;23.10;76.10;;;;;;5072133;28;20552;-72
2023/05/23 02:15:34;;;;;;;18.83;16.97;;;23.10;76.90;;;;;;5072555;28;20236;-72
2023/05/23 02:18:01;;;;;;;18.93;16.90;;;23.10;76.10;;;;;;5072675;28;20211;-72
2023/05/23 02:20:30;;;;;;;19.67;17.67;;;23.10;76.20;;;;;;5061652;28;20205;-71
2023/05/23 02:22:56;;;;;;;20.27;18.07;;;23.00;76.50;;;;;;5052372;28;20201;-71
2023/05/23 02:25:24;;;;;;;18.80;16.80;;;22.90;76.60;;;;;;5052434;28;20304;-71
2023/05/23 02:27:51;;;;;;;17.77;15.97;;;22.90;76.90;;;;;;5052549;28;20272;-71
2023/05/23 02:30:18;;;;;;;17.73;15.83;;;22.90;77.10;;;;;;5052155;28;20212;-71
2023/05/23 02:32:45;;;;;;;18.97;17.00;;;22.90;77.10;;;;;;5052156;28;20701;-71
2023/05/23 02:35:12;;;;;;;19.20;16.90;;;22.90;77.20;;;;;;5061708;28;20587;-72
2023/05/23 02:37:40;;;;;;;20.33;17.33;;;22.90;77.20;;;;;;5019916;28;20238;-72
2023/05/23 02:40:09;;;;;;;22.23;18.77;;;22.90;77.20;;;;;;5071799;28;20205;-71
2023/05/23 02:42:35;;;;;;;20.03;17.93;;;22.80;77.20;;;;;;5072132;28;20212;-71
2023/05/23 02:45:02;;;;;;;17.83;15.97;;;22.80;77.40;;;;;;5071652;28;20588;-71
2023/05/23 02:47:29;;;;;;;19.57;17.47;;;22.80;78.10;;;;;;5063750;28;20576;-71
2023/05/23 02:49:56;;;;;;;21.40;19.07;;;22.90;77.30;;;;;;5071034;28;20649;-72
2023/05/23 02:52:23;;;;;;;22.00;19.53;;;22.90;77.10;;;;;;5071808;28;20209;-71
2023/05/23 02:54:51;;;;;;;22.37;19.20;;;22.90;77.00;;;;;;5071622;28;20211;-71
2023/05/23 02:57:18;;;;;;;18.40;16.53;;;22.90;77.10;;;;;;5071859;28;20227;-72
2023/05/23 02:59:45;;;;;;;20.47;17.97;;;22.90;77.30;;;;;;5071307;28;20315;-72
2023/05/23 03:02:11;;;;;;;19.90;17.60;;;22.90;77.00;;;;;;5071527;28;20212;-72
2023/05/23 03:04:38;;;;;;;21.53;19.33;;;23.00;77.10;;;;;;5070902;28;20201;-72
2023/05/23 03:07:06;;;;;;;21.97;19.67;;;23.00;77.10;;;;;;5071440;28;20225;-72
2023/05/23 03:09:34;;;;;;;20.07;18.00;;;23.00;77.00;;;;;;5071259;28;20239;-72
2023/05/23 03:12:02;;;;;;;22.43;20.07;;;23.00;76.80;;;;;;5071585;28;20201;-72
2023/05/23 03:14:29;;;;;;;24.73;18.50;;;23.00;76.60;;;;;;5071337;28;20229;-72
2023/05/23 03:16:56;;;;;;;24.60;22.10;;;23.00;76.40;;;;;;5071247;28;20554;-72
2023/05/23 03:19:23;;;;;;;22.67;20.20;;;23.00;76.10;;;;;;5069262;28;20654;-72
2023/05/23 03:21:51;;;;;;;23.43;20.87;;;22.90;76.10;;;;;;5051425;28;20205;-72
2023/05/23 03:24:17;;;;;;;24.53;21.43;;;22.90;76.20;;;;;;5051382;28;20210;-72
2023/05/23 03:26:44;;;;;;;24.17;21.40;;;22.90;76.10;;;;;;5051212;28;20226;-73
2023/05/23 03:29:12;;;;;;;24.23;21.00;;;23.00;76.20;;;;;;5051011;28;20218;-72
2023/05/23 03:31:39;;;;;;;25.33;21.30;;;23.00;76.20;;;;;;5051116;28;20212;-71
2023/05/23 03:34:06;;;;;;;22.67;20.27;;;22.90;75.90;;;;;;5052115;28;20781;-71
2023/05/23 03:36:34;;;;;;;25.97;21.47;;;23.00;76.00;;;;;;5071079;28;20225;-72
2023/05/23 03:39:01;;;;;;;23.20;20.70;;;23.00;75.80;;;;;;5070996;28;20286;-72
2023/05/23 03:41:28;;;;;;;27.77;22.57;;;23.00;75.70;;;;;;5071097;28;20207;-71
2023/05/23 03:43:54;;;;;;;27.30;24.53;;;22.90;75.60;;;;;;5070987;28;20205;-71
2023/05/23 03:46:23;;;;;;;26.80;23.27;;;22.90;75.40;;;;;;5070791;28;20651;-72
2023/05/23 03:48:50;;;;;;;28.77;25.80;;;22.90;75.50;;;;;;5070837;28;20201;-72
2023/05/23 03:51:17;;;;;;;24.77;21.57;;;22.90;75.60;;;;;;5071051;28;20270;-71
2023/05/23 03:53:44;;;;;;;24.13;21.00;;;22.80;75.40;;;;;;5071367;28;20219;-72
2023/05/23 03:56:10;;;;;;;23.10;20.70;;;22.80;75.50;;;;;;5070895;28;20240;-72
2023/05/23 03:58:37;;;;;;;24.87;21.23;;;22.90;75.60;;;;;;5070801;28;20671;-72
2023/05/23 04:01:04;;;;;;;24.83;22.20;;;22.80;75.60;;;;;;5070710;28;20201;-72
2023/05/23 04:03:33;;;;;;;23.60;21.07;;;22.80;75.60;;;;;;5070798;28;20244;-70
2023/05/23 04:06:00;;;;;;;24.07;21.67;;;22.90;75.70;;;;;;5070623;28;20232;-72
2023/05/23 04:08:28;;;;;;;29.20;24.50;;;22.90;75.60;;;;;;5070992;28;20649;-72
2023/05/23 04:10:54;;;;;;;24.77;22.17;;;22.90;75.50;;;;;;5070683;28;20311;-72
2023/05/23 04:13:23;;;;;;;24.10;21.57;;;22.90;75.50;;;;;;5069734;28;20215;-71
2023/05/23 04:15:51;;;;;;;22.97;20.67;;;22.90;75.40;;;;;;5070402;28;20205;-73
2023/05/23 04:18:18;;;;;;;22.23;20.03;;;22.80;75.10;;;;;;5070904;28;20236;-72
2023/05/23 04:20:47;;;;;;;23.83;21.40;;;22.90;75.10;;;;;;5057956;28;20292;-72
2023/05/23 04:23:13;;;;;;;24.80;20.77;;;22.90;75.00;;;;;;5050860;28;20564;-72
2023/05/23 04:25:40;;;;;;;25.07;22.37;;;22.90;75.10;;;;;;5050303;28;20233;-73
2023/05/23 04:28:09;;;;;;;25.33;20.57;;;22.80;75.00;;;;;;5050453;28;20215;-71
2023/05/23 04:30:36;;;;;;;25.33;20.63;;;22.80;75.20;;;;;;5051402;28;20312;-71
2023/05/23 04:33:03;;;;;;;24.37;21.73;;;22.90;75.10;;;;;;5054558;28;20271;-72
2023/05/23 04:35:33;;;;;;;24.00;21.47;;;22.80;74.90;;;;;;5067044;28;20207;-72
2023/05/23 04:38:02;;;;;;;22.30;20.10;;;22.80;74.80;;;;;;5074085;28;20283;-72
2023/05/23 04:40:30;;;;;;;25.07;22.37;;;22.80;74.50;;;;;;5073849;28;20208;-71
2023/05/23 04:42:57;;;;;;;22.57;20.27;;;22.80;74.40;;;;;;5074053;28;20247;-71
2023/05/23 04:45:25;;;;;;;22.93;20.53;;;22.80;74.20;;;;;;5073979;28;20213;-72
2023/05/23 04:47:53;;;;;;;23.23;20.83;;;22.80;74.20;;;;;;5074042;28;20204;-72
2023/05/23 04:50:20;;;;;;;23.93;21.43;;;22.80;74.20;;;;;;5073736;28;20233;-72
2023/05/23 04:52:47;;;;;;;23.83;21.33;;;22.80;74.10;;;;;;5074134;28;20232;-71
2023/05/23 04:55:16;;;;;;;26.77;21.27;;;22.80;74.20;;;;;;5073695;28;20387;-72
2023/05/23 04:57:43;;;;;;;28.33;22.57;;;22.70;74.50;;;;;;5073585;28;20328;-73
2023/05/23 05:00:11;;;;;;;25.10;20.17;;;22.80;75.00;;;;;;5073670;28;20731;-72
2023/05/23 05:02:39;;;;;;;25.10;21.63;;;22.80;74.90;;;;;;5073865;28;20734;-72
2023/05/23 05:05:07;;;;;;;23.93;20.33;;;22.80;74.30;;;;;;5073853;28;20201;-72
2023/05/23 05:07:34;;;;;;;23.00;20.60;;;22.80;74.30;;;;;;5073598;28;20228;-72
2023/05/23 05:10:01;;;;;;;20.90;18.70;;;22.80;74.20;;;;;;5073773;28;20613;-73
2023/05/23 05:12:29;;;;;;;20.50;18.50;;;22.80;73.90;;;;;;5072428;28;20310;-72
2023/05/23 05:14:56;;;;;;;20.73;18.73;;;22.80;73.70;;;;;;5073606;28;20295;-72
2023/05/23 05:17:23;;;;;;;20.93;18.83;;;22.80;73.40;;;;;;5073587;28;20830;-72
2023/05/23 05:19:50;;;;;;;19.97;17.97;;;22.90;73.40;;;;;;5068312;28;20204;-71
2023/05/23 05:22:17;;;;;;;19.03;17.03;;;22.90;73.30;;;;;;5053405;28;20216;-72
2023/05/23 05:24:44;;;;;;;19.63;17.90;;;22.90;73.10;;;;;;5053430;28;20248;-71
2023/05/23 05:27:11;;;;;;;19.37;17.47;;;22.90;73.50;;;;;;5053239;28;20202;-72
2023/05/23 05:29:39;;;;;;;18.40;16.73;;;23.00;72.30;;;;;;5053167;28;20237;-72
2023/05/23 05:32:07;;;;;;;19.80;17.57;;;23.00;72.40;;;;;;5072468;28;20296;-71
2023/05/23 05:34:36;;;;;;;19.23;17.27;;;23.10;72.20;;;;;;5073463;28;20197;-72
2023/05/23 05:37:03;;;;;;;17.70;15.90;;;23.10;71.70;;;;;;5072771;28;20311;-72
2023/05/23 05:39:30;;;;;;;16.53;14.93;;;23.00;71.30;;;;;;5073289;28;20208;-73
2023/05/23 05:41:57;;;;;;;16.40;14.80;;;23.10;71.00;;;;;;5072983;28;20598;-73
2023/05/23 05:44:24;;;;;;;17.70;15.83;;;23.10;71.00;;;;;;5072757;28;20201;-72
2023/05/23 05:46:52;;;;;;;17.47;15.67;;;23.10;70.90;;;;;;5073302;28;20292;-72
2023/05/23 05:49:19;;;;;;;16.60;14.80;;;23.20;71.00;;;;;;5073206;28;20201;-72
2023/05/23 05:51:46;;;;;;;16.10;14.40;;;23.20;70.60;;;;;;5072826;28;20205;-71
2023/05/23 05:54:12;;;;;;;15.20;13.70;;;23.20;70.20;;;;;;5072956;28;20231;-73
2023/05/23 05:56:41;;;;;;;14.73;13.33;;;23.20;69.80;;;;;;5072368;28;20213;-73
2023/05/23 05:59:08;;;;;;;14.07;12.23;;;23.20;69.10;;;;;;5072484;28;20208;-72
2023/05/23 06:01:34;;;;;;;13.67;12.47;;;23.30;68.90;;;;;;5071733;28;20594;-72
2023/05/23 06:04:02;;;;;;;14.53;12.87;;;23.30;69.10;;;;;;5072584;28;20197;-73
2023/05/23 06:06:30;;;;;;;13.57;12.13;;;23.20;68.70;;;;;;5072607;28;20208;-73
2023/05/23 06:08:57;;;;;;;12.90;11.70;;;23.20;68.30;;;;;;5072533;28;20854;-71
2023/05/23 06:11:24;;;;;;;12.70;11.50;;;23.30;68.60;;;;;;5072234;28;20208;-71
2023/05/23 06:13:51;;;;;;;15.07;12.00;;;23.30;68.60;;;;;;5072614;28;20221;-73
2023/05/23 06:16:17;;;;;;;11.80;10.70;;;23.30;68.70;;;;;;5072431;28;20204;-72
2023/05/23 06:18:44;;;;;;;11.60;10.50;;;23.30;68.10;;;;;;5072240;28;20212;-72
2023/05/23 06:21:13;;;;;;;11.00;10.00;;;23.30;68.30;;;;;;5073086;28;20270;-72
2023/05/23 06:23:40;;;;;;;10.80;9.77;;;23.30;68.20;;;;;;5072429;28;20204;-72
2023/05/23 06:26:09;;;;;;;10.70;9.70;;;23.30;68.20;;;;;;5068237;28;20229;-72
2023/05/23 06:28:37;;;;;;;12.23;10.50;;;23.40;67.30;;;;;;5071960;28;20211;-72
2023/05/23 06:31:04;;;;;;;10.87;9.77;;;23.40;66.50;;;;;;5053695;28;20209;-72
2023/05/23 06:33:31;;;;;;;10.17;9.27;;;23.40;66.20;;;;;;5071821;28;20288;-72
2023/05/23 06:35:58;;;;;;;11.47;10.30;;;23.40;66.00;;;;;;5072019;28;20646;-72
2023/05/23 06:38:29;;;;;;;11.40;10.30;;;23.40;66.10;;;;;;5071895;28;20240;-72
2023/05/23 06:40:56;;;;;;;11.83;10.73;;;23.40;65.80;;;;;;5071463;28;20622;-72
2023/05/23 06:43:23;;;;;;;10.50;9.60;;;23.40;65.80;;;;;;5071927;28;20609;-72
2023/05/23 06:45:50;;;;;;;10.00;9.00;;;23.20;66.00;;;;;;5071596;28;20242;-72
2023/05/23 06:48:17;;;;;;;10.97;9.97;;;23.30;66.40;;;;;;5071695;28;20553;-72
2023/05/23 06:50:44;;;;;;;12.57;10.13;;;23.30;66.30;;;;;;5071675;28;20288;-72
2023/05/23 06:53:10;;;;;;;11.87;10.67;;;23.30;66.10;;;;;;5071044;28;20232;-72
2023/05/23 06:55:39;;;;;;;13.30;12.00;;;23.30;65.70;;;;;;5071350;28;20293;-71
2023/05/23 06:58:05;;;;;;;11.50;10.37;;;23.40;65.40;;;;;;5071503;28;20590;-72
2023/05/23 07:00:32;;;;;;;13.70;12.40;;;23.30;64.90;;;;;;5071656;28;20266;-72
2023/05/23 07:03:00;;;;;;;12.17;10.97;;;23.30;64.90;;;;;;5071613;28;20261;-72
2023/05/23 07:05:28;;;;;;;11.47;10.37;;;23.30;65.10;;;;;;5071617;28;20581;-72
2023/05/23 07:07:55;;;;;;;13.17;11.87;;;23.30;65.10;;;;;;5071058;28;20201;-72
2023/05/23 07:10:23;;;;;;;11.97;10.87;;;23.30;64.70;;;;;;5018753;28;20212;-72
2023/05/23 07:12:51;;;;;;;12.17;10.97;;;23.30;64.50;;;;;;5071506;28;20205;-72
2023/05/23 07:15:18;;;;;;;12.83;11.43;;;23.30;64.50;;;;;;5071645;28;20299;-72
2023/05/23 07:17:45;;;;;;;13.17;11.87;;;23.40;64.80;;;;;;5071194;28;20241;-72
2023/05/23 07:20:12;;;;;;;13.40;12.10;;;23.40;64.80;;;;;;5063024;28;20547;-71
2023/05/23 07:22:39;;;;;;;12.40;11.13;;;23.50;64.50;;;;;;5051102;28;20581;-72
2023/05/23 07:25:08;;;;;;;12.97;11.67;;;23.40;64.00;;;;;;5051613;28;20234;-71
2023/05/23 07:27:35;;;;;;;11.53;10.33;;;23.50;64.30;;;;;;5051628;28;20198;-72
2023/05/23 07:30:06;;;;;;;13.37;12.07;;;23.50;64.30;;;;;;5051100;28;20296;-72
2023/05/23 07:32:32;;;;;;;11.70;10.60;;;23.50;64.20;;;;;;5051976;28;20368;-71
2023/05/23 07:34:59;;;;;;;12.47;11.17;;;23.50;64.10;;;;;;5060165;28;20744;-72
2023/05/23 07:37:26;;;;;;;10.83;9.63;;;23.40;63.70;;;;;;5071412;28;20638;-72
2023/05/23 07:39:53;;;;;;;11.87;10.77;;;23.40;63.50;;;;;;5070913;28;20251;-72
2023/05/23 07:42:20;;;;;;;12.70;11.50;;;23.40;63.60;;;;;;5071343;28;20211;-72
2023/05/23 07:44:47;;;;;;;12.33;11.23;;;23.40;63.10;;;;;;5071030;28;20233;-72
2023/05/23 07:47:15;;;;;;;11.70;10.67;;;23.40;63.30;;;;;;5071092;28;20197;-71
2023/05/23 07:49:43;;;;;;;11.80;10.70;;;23.40;63.50;;;;;;5070542;28;20295;-72
2023/05/23 07:52:10;;;;;;;12.13;10.93;;;23.40;63.30;;;;;;5070705;28;20209;-72
2023/05/23 07:54:37;;;;;;;12.03;10.90;;;23.50;63.30;;;;;;5070989;28;20205;-72
2023/05/23 07:57:06;;;;;;;10.47;9.57;;;23.40;63.10;;;;;;5071020;28;22115;-71
2023/05/23 07:59:33;;;;;;;11.47;10.27;;;23.40;62.80;;;;;;5070939;28;20200;-71
2023/05/23 08:01:59;;;;;;;11.33;10.33;;;23.40;62.70;;;;;;5070824;28;20296;-71
2023/05/23 08:04:28;;;;;;;11.73;10.63;;;23.40;63.00;;;;;;5071606;28;20203;-72
2023/05/23 08:06:55;;;;;;;11.27;10.07;;;23.50;62.70;;;;;;5074887;28;20201;-72
2023/05/23 08:09:22;;;;;;;10.70;9.60;;;23.50;62.30;;;;;;5074804;28;20258;-71
2023/05/23 08:11:49;;;;;;;11.00;9.83;;;23.40;62.30;;;;;;5074837;28;20208;-71
2023/05/23 08:14:16;;;;;;;10.53;9.53;;;23.40;62.30;;;;;;5075022;28;20213;-72
2023/05/23 08:16:43;;;;;;;10.50;9.40;;;23.40;62.10;;;;;;5074664;28;20327;-72
2023/05/23 08:19:13;;;;;;;10.30;9.30;;;23.50;62.30;;;;;;5074426;28;20231;-72
2023/05/23 08:21:41;;;;;;;10.83;9.47;;;23.40;61.80;;;;;;5074376;28;20205;-72
2023/05/23 08:24:08;;;;;;;9.47;8.53;;;23.50;61.70;;;;;;5074817;28;20224;-71
2023/05/23 08:26:36;;;;;;;8.63;7.83;;;23.50;61.60;;;;;;5074704;28;20291;-71
2023/05/23 08:29:03;;;;;;;9.43;8.57;;;23.60;61.60;;;;;;5074447;28;20700;-72
2023/05/23 08:31:30;;;;;;;8.80;8.00;;;23.60;61.20;;;;;;5074328;28;20208;-72
2023/05/23 08:33:57;;;;;;;8.40;7.60;;;23.60;60.70;;;;;;5074794;28;20204;-72
2023/05/23 08:36:24;;;;;;;8.10;7.40;;;23.60;60.50;;;;;;5074006;28;20260;-73
2023/05/23 08:38:52;;;;;;;8.03;7.20;;;23.70;61.10;;;;;;5074999;28;20703;-72
2023/05/23 08:41:21;;;;;;;8.43;7.67;;;23.60;60.60;;;;;;5073217;28;20227;-71
2023/05/23 08:43:48;;;;;;;8.63;7.83;;;23.70;60.80;;;;;;5075293;28;20205;-72
2023/05/23 08:46:15;;;;;;;8.37;7.57;;;23.70;61.00;;;;;;5074807;28;20213;-71
2023/05/23 08:48:43;;;;;;;7.67;6.97;;;23.70;60.70;;;;;;5075124;28;20234;-71
2023/05/23 08:51:11;;;;;;;7.50;6.80;;;23.80;60.70;;;;;;5074222;28;20205;-72
2023/05/23 08:53:41;;;;;;;7.63;6.90;;;23.80;60.70;;;;;;5074718;28;20585;-72
2023/05/23 08:56:10;;;;;;;8.33;7.37;;;23.70;60.60;;;;;;5075024;28;20201;-72
2023/05/23 08:58:37;;;;;;;7.37;6.67;;;23.80;60.80;;;;;;5074772;28;20676;-72
2023/05/23 09:01:04;;;;;;;7.20;6.50;;;23.80;60.70;;;;;;5074273;28;20216;-72
2023/05/23 09:03:32;;;;;;;7.67;6.43;;;23.80;60.90;;;;;;5075082;28;20558;-72
2023/05/23 09:05:59;;;;;;;9.47;6.23;;;23.80;61.20;;;;;;5074180;28;20271;-72
2023/05/23 09:08:26;;;;;;;6.50;6.00;;;23.80;61.20;;;;;;5074455;28;20215;-71
2023/05/23 09:10:54;;;;;;;6.37;5.77;;;23.80;60.90;;;;;;5074359;28;20215;-72
2023/05/23 09:13:22;;;;;;;6.17;5.57;;;23.80;60.70;;;;;;5074657;28;20201;-71
2023/05/23 09:16:03;;;;;;;6.17;5.43;;;23.80;60.70;;;;;;5074449;28;20298;-72
2023/05/23 09:18:34;;;;;;;5.93;5.43;;;23.90;60.80;;;;;;5073964;28;20675;-72
2023/05/23 09:21:02;;;;;;;6.23;5.70;;;24.00;60.60;;;;;;5058295;28;20209;-72
2023/05/23 09:23:31;;;;;;;6.30;5.70;;;24.10;59.90;;;;;;5053585;28;20328;-71
2023/05/23 09:26:02;;;;;;;6.03;5.50;;;24.20;60.00;;;;;;5036360;28;20237;-71
2023/05/23 09:28:30;;;;;;;6.30;5.80;;;24.30;60.10;;;;;;5053919;28;20304;-71
2023/05/23 09:31:00;;;;;;;5.20;4.80;;;24.40;60.00;;;;;;5053697;28;20209;-72
2023/05/23 09:33:36;;;;;;;5.23;4.77;;;24.50;59.30;;;;;;5053928;28;20532;-72
2023/05/23 09:36:05;;;;;;;4.83;4.43;;;24.60;58.80;;;;;;5071182;28;20308;-71
2023/05/23 09:38:32;;;;;;;4.63;4.23;;;24.60;59.00;;;;;;5074316;28;20233;-72
2023/05/23 09:40:59;;;;;;;4.83;4.40;;;24.60;58.50;;;;;;5073713;28;20215;-72
2023/05/23 09:43:28;;;;;;;5.00;4.50;;;24.70;58.30;;;;;;5074146;28;20212;-71
2023/05/23 09:46:01;;;;;;;5.23;4.30;;;24.70;58.20;;;;;;5074019;28;20212;-72
2023/05/23 09:48:31;;;;;;;4.53;4.13;;;24.70;57.90;;;;;;5073710;28;20236;-71
2023/05/23 09:50:57;;;;;;;4.50;4.07;;;24.70;57.90;;;;;;5073441;28;20201;-72
2023/05/23 09:53:24;;;;;;;4.20;3.80;;;24.70;58.20;;;;;;5073728;28;20267;-71
2023/05/23 09:55:52;;;;;;;3.70;3.40;;;24.70;58.20;;;;;;5073972;28;20204;-72
2023/05/23 09:58:20;;;;;;;3.83;3.53;;;24.70;57.70;;;;;;5073767;28;20236;-71
2023/05/23 10:00:51;;;;;;;4.07;3.73;;;24.70;58.10;;;;;;5073417;28;20205;-71
2023/05/23 10:03:24;;;;;;;3.43;3.07;;;24.70;57.20;;;;;;5073316;28;20228;-71
2023/05/23 10:05:56;;;;;;;4.00;3.53;;;24.80;57.70;;;;;;5073706;28;20772;-72
2023/05/23 10:08:26;;;;;;;4.63;4.00;;;24.80;57.80;;;;;;5073539;28;20201;-72
2023/05/23 10:11:33;;;;;;;3.80;3.50;;;24.90;57.50;;;;;;5073173;28;20236;-71
2023/05/23 10:14:02;;;;;;;4.60;4.20;;;24.90;57.00;;;;;;5073750;28;20274;-72
2023/05/23 10:16:38;;;;;;;3.60;3.30;;;25.00;55.70;;;;;;5073343;28;20208;-72
2023/05/23 10:19:16;;;;;;;3.40;3.20;;;24.90;55.60;;;;;;5073319;28;20282;-72
2023/05/23 10:21:44;;;;;;;4.60;4.20;;;24.90;56.80;;;;;;5052849;28;20206;-72
2023/05/23 10:24:13;;;;;;;3.93;3.63;;;25.00;57.00;;;;;;5053125;28;20232;-72
2023/05/23 10:26:40;;;;;;;3.93;3.63;;;25.10;57.10;;;;;;5053470;28;20296;-71
2023/05/23 10:29:07;;;;;;;3.67;3.37;;;25.10;57.00;;;;;;5052290;28;20225;-72
2023/05/23 10:31:36;;;;;;;4.40;3.37;;;25.20;57.00;;;;;;5052591;28;20208;-72
2023/05/23 10:34:15;;;;;;;3.30;3.10;;;25.20;57.10;;;;;;5053578;28;20209;-72
2023/05/23 10:36:53;;;;;;;5.63;3.20;;;25.30;57.00;;;;;;5072996;28;20232;-71
2023/05/23 10:39:28;;;;;;;3.60;3.30;;;25.30;56.40;;;;;;5072859;28;20231;-72
2023/05/23 10:42:00;;;;;;;3.87;3.30;;;25.30;56.90;;;;;;5072689;28;20232;-72
2023/05/23 10:44:29;;;;;;;3.37;3.07;;;25.30;57.20;;;;;;5072857;28;20205;-72
2023/05/23 10:47:00;;;;;;;3.47;3.20;;;25.30;56.80;;;;;;5072346;28;20201;-72
2023/05/23 10:49:41;;;;;;;3.40;3.10;;;25.30;56.80;;;;;;5072866;28;20205;-72
2023/05/23 10:52:11;;;;;;;3.13;2.83;;;25.30;56.40;;;;;;5072490;28;20215;-71
2023/05/23 10:54:42;;;;;;;3.50;2.90;;;25.30;57.00;;;;;;5072732;28;20272;-71
2023/05/23 10:57:11;;;;;;;3.60;3.30;;;25.30;57.30;;;;;;5072718;28;20310;-71
2023/05/23 10:59:39;;;;;;;3.33;3.03;;;25.30;57.20;;;;;;5072377;28;20263;-72
2023/05/23 11:02:13;;;;;;;3.40;3.10;;;25.30;56.10;;;;;;5071910;28;20724;-71
2023/05/23 11:04:40;;;;;;;3.10;2.90;;;25.40;56.50;;;;;;5072423;28;20217;-72
2023/05/23 11:07:27;;;;;;;4.13;2.60;;;25.50;56.60;;;;;;5072664;28;20201;-71
2023/05/23 11:10:10;;;;;;;2.70;2.50;;;25.60;56.90;;;;;;5072280;28;20207;-71
2023/05/23 11:12:39;;;;;;;3.40;3.10;;;25.80;56.20;;;;;;5070354;28;20726;-72
2023/05/23 11:15:20;;;;;;;3.20;2.90;;;25.80;54.90;;;;;;5072194;28;20205;-72
2023/05/23 11:17:52;;;;;;;3.20;2.93;;;25.90;55.10;;;;;;5072183;28;20236;-72
2023/05/23 11:20:22;;;;;;;2.97;2.77;;;26.00;54.80;;;;;;5071917;28;20200;-72
2023/05/23 11:23:01;;;;;;;3.30;3.00;;;26.10;55.30;;;;;;5072091;28;20721;-72
2023/05/23 11:25:43;;;;;;;3.17;2.97;;;26.10;54.70;;;;;;5072345;28;20305;-72
2023/05/23 11:28:10;;;;;;;3.80;2.83;;;26.20;55.30;;;;;;5072464;28;20254;-73
2023/05/23 11:30:38;;;;;;;3.00;2.77;;;26.20;55.90;;;;;;5071665;28;20209;-72
2023/05/23 11:33:12;;;;;;;3.10;2.80;;;26.10;55.30;;;;;;5071827;28;20215;-72
2023/05/23 11:35:40;;;;;;;2.83;2.63;;;26.10;54.80;;;;;;5072279;28;20626;-72
2023/05/23 11:38:07;;;;;;;3.30;3.00;;;26.00;55.20;;;;;;5072078;28;20233;-72
2023/05/23 11:40:35;;;;;;;3.17;2.80;;;26.00;54.80;;;;;;5071428;28;20201;-72
2023/05/23 11:43:04;;;;;;;3.20;2.87;;;25.90;55.20;;;;;;5071795;28;20201;-72
2023/05/23 11:45:32;;;;;;;3.57;3.07;;;25.90;55.70;;;;;;5071504;28;20221;-72
2023/05/23 11:48:04;;;;;;;4.13;2.80;;;26.00;55.60;;;;;;5071928;28;20228;-72
2023/05/23 11:50:31;;;;;;;2.97;2.77;;;26.00;55.70;;;;;;5071705;28;20255;-71
2023/05/23 11:52:58;;;;;;;3.40;2.93;;;26.00;55.20;;;;;;5071625;28;20225;-72
2023/05/23 11:55:25;;;;;;;3.00;2.80;;;26.00;55.20;;;;;;5071918;28;20211;-71
2023/05/23 11:57:52;;;;;;;2.60;2.40;;;26.00;55.40;;;;;;5071660;28;20296;-72
2023/05/23 12:00:20;;;;;;;3.67;3.00;;;25.90;55.30;;;;;;5071374;28;20715;-72
2023/05/23 12:02:48;;;;;;;3.10;2.80;;;25.90;55.60;;;;;;5071533;28;20293;-71
2023/05/23 12:05:15;;;;;;;3.00;2.80;;;25.80;55.90;;;;;;5071682;28;20232;-71
2023/05/23 12:07:42;;;;;;;3.37;2.80;;;25.70;55.50;;;;;;5071568;28;20197;-71
2023/05/23 12:10:10;;;;;;;2.87;2.40;;;25.60;55.70;;;;;;5071540;28;20203;-72
2023/05/23 12:12:40;;;;;;;2.50;2.30;;;25.50;55.80;;;;;;5053514;28;20205;-71
2023/05/23 12:15:09;;;;;;;3.33;2.90;;;25.50;56.00;;;;;;5071707;28;20255;-71
2023/05/23 12:17:38;;;;;;;2.90;2.70;;;25.40;55.60;;;;;;5053961;28;20228;-71
2023/05/23 12:20:06;;;;;;;3.03;2.83;;;25.40;56.30;;;;;;5064207;28;20304;-72
2023/05/23 12:22:33;;;;;;;3.40;3.10;;;25.40;56.30;;;;;;5051449;28;20316;-71
2023/05/23 12:25:00;;;;;;;3.40;3.10;;;25.40;56.40;;;;;;5058764;28;20232;-71
2023/05/23 12:27:30;;;;;;;3.00;2.70;;;25.50;56.50;;;;;;5071411;28;20604;-71
2023/05/23 12:30:08;;;;;;;3.37;3.07;;;25.50;56.60;;;;;;5071521;28;20271;-72
2023/05/23 12:32:35;;;;;;;2.70;2.50;;;25.50;56.30;;;;;;5071543;28;20209;-71
2023/05/23 12:35:04;;;;;;;3.40;3.03;;;25.60;56.30;;;;;;5071311;28;20232;-71
2023/05/23 12:37:31;;;;;;;3.53;3.23;;;25.60;56.60;;;;;;5071338;28;20213;-72
2023/05/23 12:39:58;;;;;;;3.30;3.07;;;25.70;56.60;;;;;;5071315;28;20306;-72